»·PEaware :: N7581Y KAVX-KSAN

N7581Y :: KAVX-KSAN

FLIGHT INFORMATION

Flight Status: Arrived
Operator: Privately registered:
United States
More flights under this callsign
Pilot: Brett L. (12997)
Aircraft: PIPER PA-30 TWIN COMANCHE
(PA30)
More flights by this aircraft type
Origin: KAVX Catalina
United States
Destination: KSAN San Diego Intl-Lindbergh
United States
More flights between these airports :: More routes between these airports
Route: +SXC V208 OCN V23 MZB
File this flight plan on PilotEdge
Remarks:
Altitude:
(Current/Filed)
5,000ft
Speed:
(Current/Filed)
150kts
Departed: 27-Jan-20 07:57 PM
Arrived: 27-Jan-20 08:47 PM
Distance/Time
Traveled:
74nm/0:50
Distance/Time
To Go:
Arrived

Flight Plot

Page will automatically refresh every two minutes.


Map Options




Map Legend


Flown Route
Filed Route
Departure Airport
Arrival Airport
Navaid (VOR, NDB)
Fix

Horizontal Profiles

Position Reports

Time Latitude Longitude Heading Altitude Ground
Speed
27-Jan-20 19:42 33.403518 -118.415225 339 1569ft 0kts
27-Jan-20 19:43 33.403518 -118.415225 339 1569ft 0kts
27-Jan-20 19:44 33.403518 -118.415225 339 1569ft 0kts
27-Jan-20 19:45 33.403518 -118.415225 339 1569ft 0kts
27-Jan-20 19:46 33.403518 -118.415225 339 1569ft 0kts
27-Jan-20 19:47 33.403518 -118.415225 339 1569ft 0kts
27-Jan-20 19:48 33.403518 -118.415225 339 1569ft 0kts
27-Jan-20 19:49 33.403518 -118.415225 339 1569ft 0kts
27-Jan-20 19:50 33.403518 -118.415225 339 1569ft 0kts
27-Jan-20 19:51 33.403518 -118.415225 339 1569ft 0kts
27-Jan-20 19:52 33.403615 -118.415237 10 1569ft 4kts
27-Jan-20 19:53 33.403772 -118.415151 28 1569ft 0kts
27-Jan-20 19:54 33.404463 -118.415055 356 1569ft 16kts
27-Jan-20 19:55 33.407097 -118.411527 55 1569ft 0kts
27-Jan-20 19:56 33.400837 -118.422808 237 1793ft 94kts
27-Jan-20 19:57 33.386149 -118.454977 243 2980ft 116kts
27-Jan-20 19:58 33.364741 -118.453179 80 4001ft 125kts
27-Jan-20 19:59 33.373516 -118.412845 99 4901ft 126kts
27-Jan-20 20:00 33.368665 -118.366206 101 5126ft 153kts
27-Jan-20 20:01 33.360992 -118.313979 99 5070ft 161kts
27-Jan-20 20:02 33.353873 -118.259976 99 5069ft 165kts
27-Jan-20 20:03 33.346719 -118.205487 99 5069ft 165kts
27-Jan-20 20:04 33.339511 -118.150977 99 4964ft 171kts
27-Jan-20 20:05 33.332131 -118.095255 99 4922ft 167kts
27-Jan-20 20:07 33.324839 -118.040374 99 4923ft 167kts
27-Jan-20 20:08 33.317501 -117.985332 99 4923ft 168kts
27-Jan-20 20:09 33.310086 -117.929994 99 4923ft 168kts
27-Jan-20 20:10 33.302620 -117.874289 98 4923ft 168kts
27-Jan-20 20:11 33.295179 -117.819050 99 4922ft 169kts
27-Jan-20 20:12 33.287651 -117.763433 99 4922ft 168kts
27-Jan-20 20:13 33.280120 -117.707968 99 4922ft 169kts
27-Jan-20 20:14 33.272583 -117.652566 99 4923ft 169kts
27-Jan-20 20:15 33.265010 -117.597113 99 4923ft 168kts
27-Jan-20 20:16 33.257428 -117.541844 99 4922ft 168kts
27-Jan-20 20:17 33.249798 -117.486372 99 4922ft 168kts
27-Jan-20 20:18 33.239990 -117.431714 123 4920ft 170kts
27-Jan-20 20:19 33.199674 -117.402529 156 4922ft 171kts
27-Jan-20 20:20 33.155093 -117.381919 159 4892ft 172kts
27-Jan-20 20:21 33.109725 -117.362779 159 4886ft 171kts
27-Jan-20 20:22 33.064673 -117.343851 160 4882ft 172kts
27-Jan-20 20:23 33.020025 -117.325118 160 4876ft 173kts
27-Jan-20 20:24 32.974548 -117.306072 160 4870ft 173kts
27-Jan-20 20:25 32.928926 -117.286915 160 4868ft 174kts
27-Jan-20 20:26 32.883891 -117.268106 160 4869ft 173kts
27-Jan-20 20:27 32.838836 -117.247929 144 4862ft 172kts
27-Jan-20 20:28 32.820814 -117.197039 103 4868ft 170kts
27-Jan-20 20:28 32.811802 -117.150962 102 4869ft 171kts
27-Jan-20 20:30 32.799205 -117.086463 102 4869ft 171kts
27-Jan-20 20:30 32.790097 -117.040220 103 4877ft 171kts
27-Jan-20 20:31 32.779261 -116.985152 102 4881ft 170kts
27-Jan-20 20:33 32.766665 -116.921141 102 4889ft 170kts
27-Jan-20 20:33 32.757670 -116.875459 102 4895ft 170kts
27-Jan-20 20:34 32.746913 -116.820852 102 4895ft 170kts
27-Jan-20 20:35 32.713878 -116.791182 190 4896ft 172kts
27-Jan-20 20:36 32.667875 -116.807004 217 4893ft 174kts
27-Jan-20 20:37 32.657003 -116.860823 284 4896ft 175kts
27-Jan-20 20:38 32.667523 -116.917147 281 4742ft 168kts
27-Jan-20 20:39 32.680778 -116.970987 284 3849ft 173kts
27-Jan-20 20:40 32.691697 -117.022631 291 2885ft 153kts
27-Jan-20 20:41 32.703154 -117.066045 282 2026ft 104kts
27-Jan-20 20:42 32.710281 -117.095764 288 1552ft 85kts
27-Jan-20 20:43 32.717525 -117.123029 286 990ft 86kts
27-Jan-20 20:44 32.723842 -117.150215 288 508ft 84kts
27-Jan-20 20:45 32.730587 -117.177754 287 70ft 83kts
27-Jan-20 20:46 32.734053 -117.188052 19 16ft 0kts
27-Jan-20 20:47 32.733648 -117.185227 104 16ft 17kts
27-Jan-20 20:48 32.732395 -117.179934 103 15ft 14kts

Navigation Log

Ident Type
Flight plan parsing failed, navigation log unavailable